首页
METAR-TAF:

METAR-TAF

机场 :

St. Augustine Airport

聖奧古斯丁, 佛罗里达州, 美国

纬度: 29-57-33N, 经度: 081-20-23W, 海拔: 3米

当前天气观测

该预报发布于12分钟前的10:51 UTC
风速14节,风向
温度 23°C
湿度 100%
气压 1013 hPa
能見度: 3.2公里
阴天层高于300英尺
小雨, 轻雾

METAR: KSGJ 261051Z 08014KT 2SM -RA BR OVC003 23/23 A2992 RMK AO2 WSHFT 0953 RAB08 P0007 $

时间: 07:03 (11:03 UTC)

预报

该预报发布于2小时和2分钟前的09:01 UTC
预报有效从26日的 09点(UTC)到 27日的 06点(UTC)
风速12节,风向,有时为18节阵风
能見度: 9.7公里
散云层高于1500英尺
多云层高于3500英尺
阴天层高于5000英尺
小雨, 轻雾
从 26日的 1000点(UTC)
风速15节,风向东转东北,有时为25节阵风
能見度: 8.0公里
多云层高于1500英尺
阴天层高于2500英尺
雨, 轻雾
从 26日的 1200点(UTC)
风速18节,风向东北,有时为30节阵风
能見度: 6.4公里
多云层高于800英尺
阴天层高于1500英尺, 积雨云.
阵雨, 附近有雷暴
从 26日的 1800点(UTC)
风速15节,风向北转东北,有时为25节阵风
能見度: 10公里
多云层高于1500英尺
多云层高于2500英尺
附近有阵雨
从 27日的 0100点(UTC)
风速6节,风向东转东南
能見度: 10公里
阴天层高于2500英尺

TAF: KSGJ 260901Z 2609/2706 10012G18KT 6SM -RA BR SCT015 BKN035 OVC050 FM261000 06015G25KT 5SM RA BR BKN015 OVC025 FM261200 05018G30KT 4SM SHRA VCTS BKN008 OVC015CB FM261800 02015G25KT P6SM VCSH BKN015 BKN025 FM270100 11006KT P6SM OVC025

超过4000个机场的气象观测和天气预报(METAR&TAF报告)。

可查询的气象台以黄色和红色小点在地图上表示。

将鼠标移到小点上方,可查看气象台名称。

然后点击查看天气观测和预报。

如需切换地图:点击带黑十字的绿色按钮放大地图;点击带横线的绿色按钮缩小地图;或者点击绿色箭头查看邻近地区的地图。


METAR-TAF: